createdAt,value
2022-10-08T00:01:31.181Z,14.92
2022-10-08T00:03:59.630Z,14.93
2022-10-08T00:06:31.716Z,14.92
2022-10-08T00:09:07.222Z,14.94
2022-10-08T00:11:39.542Z,14.93
2022-10-08T00:14:09.326Z,14.94
2022-10-08T00:16:41.036Z,14.95
2022-10-08T00:19:15.286Z,14.97
2022-10-08T00:21:45.783Z,14.98
2022-10-08T00:24:17.853Z,15.01
2022-10-08T00:26:46.226Z,15.04
2022-10-08T00:29:17.498Z,15.05
2022-10-08T00:31:49.986Z,15.06
2022-10-08T00:34:23.603Z,15.07
2022-10-08T00:36:54.900Z,15.08
2022-10-08T00:39:25.145Z,15.10
2022-10-08T00:41:55.893Z,15.12
2022-10-08T00:44:51.543Z,15.13
2022-10-08T00:47:47.988Z,15.13
2022-10-08T00:50:26.475Z,15.14
2022-10-08T00:53:01.357Z,15.14
2022-10-08T00:55:31.375Z,15.15
2022-10-08T00:58:10.127Z,15.16
2022-10-08T01:00:38.397Z,15.18
2022-10-08T01:03:06.822Z,15.20
2022-10-08T01:06:17.999Z,15.21
2022-10-08T01:09:22.715Z,15.22
2022-10-08T01:12:03.797Z,15.21
2022-10-08T01:14:53.470Z,15.19
2022-10-08T01:17:49.848Z,15.18
2022-10-08T01:20:56.414Z,15.16
2022-10-08T01:23:58.785Z,15.14
2022-10-08T01:26:55.798Z,15.13
2022-10-08T01:29:40.976Z,15.13
2022-10-08T01:32:17.340Z,15.13
2022-10-08T01:35:20.761Z,15.14
2022-10-08T01:37:50.506Z,15.11
2022-10-08T01:40:23.822Z,15.08
2022-10-08T01:42:54.481Z,15.07
2022-10-08T01:45:31.642Z,15.08
2022-10-08T01:48:06.454Z,15.10
2022-10-08T01:51:04.209Z,15.12
2022-10-08T01:53:39.446Z,15.13
2022-10-08T01:56:10.881Z,15.14
2022-10-08T01:59:00.469Z,15.14
2022-10-08T02:01:59.212Z,15.13
2022-10-08T02:04:33.636Z,15.10
2022-10-08T02:07:17.562Z,15.05
2022-10-08T02:09:53.769Z,14.99
2022-10-08T02:12:25.200Z,14.92
2022-10-08T02:14:56.642Z,14.86
2022-10-08T02:17:54.468Z,14.82
2022-10-08T02:20:55.019Z,14.76
2022-10-08T02:23:50.579Z,14.67
2022-10-08T02:26:27.046Z,14.58
2022-10-08T02:29:11.141Z,14.48
2022-10-08T02:31:53.107Z,14.40
2022-10-08T02:34:30.644Z,14.31
2022-10-08T02:37:12.031Z,14.24
2022-10-08T02:39:47.075Z,14.16
2022-10-08T02:42:21.911Z,14.08
2022-10-08T02:45:01.988Z,13.98
2022-10-08T02:47:33.963Z,13.89
2022-10-08T02:50:11.641Z,13.79
2022-10-08T02:52:43.822Z,13.70
2022-10-08T02:55:54.848Z,13.64
2022-10-08T02:58:23.893Z,13.57
2022-10-08T03:01:02.993Z,13.51
2022-10-08T03:03:37.200Z,13.46
2022-10-08T03:06:10.986Z,13.43
2022-10-08T03:08:44.670Z,13.38
2022-10-08T03:11:13.877Z,13.37
2022-10-08T03:13:47.209Z,13.37
2022-10-08T03:16:21.219Z,13.38
2022-10-08T03:18:52.268Z,13.41
2022-10-08T03:21:20.706Z,13.43
2022-10-08T03:23:48.949Z,13.44
2022-10-08T03:26:19.016Z,13.43
2022-10-08T03:28:47.466Z,13.42
2022-10-08T03:31:16.263Z,13.43
2022-10-08T03:33:49.180Z,13.44
2022-10-08T03:36:18.409Z,13.44
2022-10-08T03:38:47.655Z,13.44
2022-10-08T03:41:16.552Z,13.43
2022-10-08T03:43:45.393Z,13.43
2022-10-08T03:46:15.277Z,13.41
2022-10-08T03:48:44.048Z,13.41
2022-10-08T03:51:14.586Z,13.41
2022-10-08T03:53:44.075Z,13.40
2022-10-08T03:56:19.972Z,13.39
2022-10-08T03:58:58.511Z,13.38
2022-10-08T04:01:29.135Z,13.39
2022-10-08T04:03:57.466Z,13.42
2022-10-08T04:06:25.810Z,13.46
2022-10-08T04:08:56.019Z,13.50
2022-10-08T04:11:24.396Z,13.52
2022-10-08T04:13:52.668Z,13.55
2022-10-08T04:16:21.100Z,13.57
2022-10-08T04:18:49.495Z,13.61
2022-10-08T04:21:19.918Z,13.63
2022-10-08T04:23:51.504Z,13.67
2022-10-08T04:26:19.811Z,13.71
2022-10-08T04:28:48.318Z,13.77
2022-10-08T04:31:21.835Z,13.82
2022-10-08T04:33:51.802Z,13.88
2022-10-08T04:36:25.367Z,13.95
2022-10-08T04:38:53.624Z,14.00
2022-10-08T04:41:25.862Z,14.06
2022-10-08T04:43:58.635Z,14.13
2022-10-08T04:46:27.764Z,14.19
2022-10-08T04:48:57.158Z,14.25
2022-10-08T04:51:27.611Z,14.30
2022-10-08T04:53:57.766Z,14.35
2022-10-08T04:56:29.941Z,14.39
2022-10-08T04:59:00.349Z,14.42
2022-10-08T05:01:30.081Z,14.45
2022-10-08T05:03:59.689Z,14.48
2022-10-08T05:06:31.367Z,14.51
2022-10-08T05:09:04.020Z,14.54
2022-10-08T05:11:33.326Z,14.56
2022-10-08T05:14:02.184Z,14.58
2022-10-08T05:16:30.478Z,14.60
2022-10-08T05:18:59.794Z,14.61
2022-10-08T05:21:30.415Z,14.63
2022-10-08T05:24:04.863Z,14.64
2022-10-08T05:26:57.939Z,14.66
2022-10-08T05:29:29.629Z,14.68
2022-10-08T05:31:58.009Z,14.69
2022-10-08T05:34:26.201Z,14.70
2022-10-08T05:36:54.486Z,14.71
2022-10-08T05:39:22.667Z,14.72
2022-10-08T05:41:51.859Z,14.73
2022-10-08T05:44:20.759Z,14.72
2022-10-08T05:46:49.096Z,14.70
2022-10-08T05:49:23.066Z,14.69
2022-10-08T05:51:51.549Z,14.70
2022-10-08T05:54:20.321Z,14.73
2022-10-08T05:56:48.750Z,14.76
2022-10-08T05:59:23.116Z,14.80
2022-10-08T06:01:52.420Z,14.84
2022-10-08T06:04:20.829Z,14.88
2022-10-08T06:06:49.129Z,14.91
2022-10-08T06:09:20.916Z,14.95
2022-10-08T06:11:50.437Z,14.99
2022-10-08T06:14:20.527Z,15.02
2022-10-08T06:16:49.053Z,15.05
2022-10-08T06:19:17.471Z,15.09
2022-10-08T06:21:45.854Z,15.12
2022-10-08T06:24:15.041Z,15.15
2022-10-08T06:26:44.897Z,15.15
2022-10-08T06:29:18.319Z,15.16
2022-10-08T06:31:47.244Z,15.19
2022-10-08T06:34:15.834Z,15.23
2022-10-08T06:36:44.111Z,15.27
2022-10-08T06:39:16.358Z,15.31
2022-10-08T06:41:44.671Z,15.36
2022-10-08T06:44:14.940Z,15.44
2022-10-08T06:46:43.821Z,15.53
2022-10-08T06:49:12.702Z,15.63
2022-10-08T06:51:41.267Z,15.72
2022-10-08T06:54:09.550Z,15.82
2022-10-08T06:56:39.066Z,15.93
2022-10-08T06:59:08.643Z,16.05
2022-10-08T07:01:38.294Z,16.16
2022-10-08T07:04:07.286Z,16.27
2022-10-08T07:06:35.899Z,16.37
2022-10-08T07:09:06.818Z,16.45
2022-10-08T07:11:35.219Z,16.54
2022-10-08T07:14:04.223Z,16.64
2022-10-08T07:16:35.082Z,16.75
2022-10-08T07:19:03.507Z,16.86
2022-10-08T07:21:31.890Z,16.96
2022-10-08T07:24:01.612Z,17.06
2022-10-08T07:26:34.364Z,17.17
2022-10-08T07:29:11.864Z,17.29
2022-10-08T07:31:40.747Z,17.44
2022-10-08T07:34:13.121Z,17.57
2022-10-08T07:36:42.166Z,17.68
2022-10-08T07:39:16.107Z,17.79
2022-10-08T07:41:46.090Z,17.89
2022-10-08T07:44:16.108Z,18.02
2022-10-08T07:46:50.601Z,18.16
2022-10-08T07:49:20.929Z,18.27
2022-10-08T07:51:49.479Z,18.38
2022-10-08T07:54:20.424Z,18.49
2022-10-08T07:56:48.744Z,18.59
2022-10-08T07:59:17.054Z,18.67
2022-10-08T08:01:46.011Z,18.71
2022-10-08T08:04:15.041Z,18.74
2022-10-08T08:06:49.983Z,18.75
2022-10-08T08:09:18.668Z,18.78
2022-10-08T08:11:49.096Z,18.83
2022-10-08T08:14:19.761Z,18.87
2022-10-08T08:16:48.625Z,18.91
2022-10-08T08:19:17.106Z,18.95
2022-10-08T08:21:45.361Z,18.97
2022-10-08T08:24:15.287Z,19.02
2022-10-08T08:26:44.685Z,19.03
2022-10-08T08:29:16.736Z,19.03
2022-10-08T08:31:49.048Z,19.05
2022-10-08T08:34:24.530Z,19.10
2022-10-08T08:36:53.878Z,19.15
2022-10-08T08:39:25.668Z,19.19
2022-10-08T08:42:21.339Z,19.32
2022-10-08T08:44:58.877Z,19.48
2022-10-08T08:47:54.490Z,19.59
2022-10-08T08:50:35.175Z,19.75
2022-10-08T08:53:05.611Z,19.97
2022-10-08T08:55:43.977Z,20.13
2022-10-08T08:58:45.293Z,20.28
2022-10-08T09:01:30.681Z,20.37
2022-10-08T09:04:06.616Z,20.43
2022-10-08T09:06:36.299Z,20.51
2022-10-08T09:09:23.173Z,20.59
2022-10-08T09:11:51.732Z,20.60
2022-10-08T09:14:40.639Z,20.55
2022-10-08T09:17:39.764Z,20.56
2022-10-08T09:20:13.577Z,20.62
2022-10-08T09:22:42.139Z,20.69
2022-10-08T09:25:16.840Z,20.75
2022-10-08T09:28:06.239Z,20.80
2022-10-08T09:30:47.943Z,20.87
2022-10-08T09:33:29.495Z,20.87
2022-10-08T09:35:58.748Z,20.87
2022-10-08T09:38:33.489Z,20.87
2022-10-08T09:41:19.515Z,20.86
2022-10-08T09:44:16.960Z,20.86
2022-10-08T09:46:46.430Z,20.95
2022-10-08T09:49:41.611Z,20.99
2022-10-08T09:52:26.972Z,21.04
2022-10-08T09:55:11.013Z,21.13
2022-10-08T09:57:45.956Z,21.23
2022-10-08T10:00:26.107Z,21.28
2022-10-08T10:02:57.583Z,21.31
2022-10-08T10:05:33.751Z,21.42
2022-10-08T10:08:03.662Z,21.68
2022-10-08T10:10:45.867Z,22.00
2022-10-08T10:13:29.089Z,22.29
2022-10-08T10:16:04.931Z,22.63
2022-10-08T10:18:44.718Z,22.89
2022-10-08T10:21:22.377Z,23.02
2022-10-08T10:24:05.795Z,23.02
2022-10-08T10:26:39.354Z,22.99
2022-10-08T10:29:20.984Z,23.00
2022-10-08T10:31:58.472Z,23.02
2022-10-08T10:34:38.629Z,23.03
2022-10-08T10:37:24.168Z,23.04
2022-10-08T10:40:26.199Z,23.08
2022-10-08T10:43:45.576Z,23.15
2022-10-08T10:46:35.772Z,23.11
2022-10-08T10:49:18.054Z,22.88
2022-10-08T10:52:15.764Z,22.59
2022-10-08T10:55:12.528Z,22.35
2022-10-08T10:58:02.088Z,22.17
2022-10-08T11:00:50.708Z,22.08
2022-10-08T11:03:43.479Z,22.05
2022-10-08T11:06:35.974Z,21.97
2022-10-08T11:09:42.668Z,21.92
2022-10-08T11:12:42.277Z,21.69
2022-10-08T11:15:36.201Z,21.40
2022-10-08T11:18:35.747Z,21.11
2022-10-08T11:21:23.323Z,20.86
2022-10-08T11:24:18.963Z,20.69
2022-10-08T11:27:32.207Z,20.53
2022-10-08T11:30:42.861Z,20.42
2022-10-08T11:33:15.882Z,20.35
2022-10-08T11:36:23.638Z,20.31
2022-10-08T11:39:42.391Z,20.26
2022-10-08T11:42:13.642Z,20.15
2022-10-08T11:44:42.468Z,20.05
2022-10-08T11:47:42.098Z,19.95
2022-10-08T11:50:36.355Z,19.84
2022-10-08T11:53:10.797Z,19.75
2022-10-08T11:55:39.701Z,19.68
2022-10-08T11:58:23.790Z,19.63
2022-10-08T12:01:00.955Z,19.57
2022-10-08T12:03:34.460Z,19.53
2022-10-08T12:06:28.459Z,19.48
2022-10-08T12:09:03.914Z,19.43
2022-10-08T12:11:32.121Z,19.39
2022-10-08T12:14:12.739Z,19.35
2022-10-08T12:16:47.595Z,19.32
2022-10-08T12:19:35.106Z,19.27
2022-10-08T12:22:16.626Z,19.23
2022-10-08T12:24:50.005Z,19.20
2022-10-08T12:27:38.158Z,19.18
2022-10-08T12:30:11.035Z,19.15
2022-10-08T12:32:42.045Z,19.12
2022-10-08T12:35:38.777Z,19.09
2022-10-08T12:38:14.952Z,19.03
2022-10-08T12:41:08.937Z,18.98
2022-10-08T12:43:40.154Z,18.92
2022-10-08T12:46:44.979Z,18.88
2022-10-08T12:49:45.097Z,18.81
2022-10-08T12:52:19.699Z,18.77
2022-10-08T12:54:55.205Z,18.74
2022-10-08T12:57:36.712Z,18.74
2022-10-08T13:00:22.995Z,18.74
2022-10-08T13:03:05.321Z,18.75
2022-10-08T13:05:38.085Z,18.76
2022-10-08T13:08:37.926Z,18.78
2022-10-08T13:11:11.771Z,18.80
2022-10-08T13:13:39.975Z,18.81
2022-10-08T13:16:18.213Z,18.83
2022-10-08T13:18:53.860Z,18.87
2022-10-08T13:21:30.978Z,18.87
2022-10-08T13:24:25.210Z,18.87
2022-10-08T13:26:57.224Z,18.87
2022-10-08T13:29:27.625Z,18.85
2022-10-08T13:32:14.142Z,18.83
2022-10-08T13:34:46.783Z,18.82
2022-10-08T13:37:36.327Z,18.81
2022-10-08T13:40:13.611Z,18.80
2022-10-08T13:42:47.343Z,18.79
2022-10-08T13:45:25.228Z,18.78
2022-10-08T13:47:55.349Z,18.77
2022-10-08T13:50:24.230Z,18.77
2022-10-08T13:52:57.347Z,18.76
2022-10-08T13:55:33.970Z,18.75
2022-10-08T13:58:05.457Z,18.73
2022-10-08T14:00:39.809Z,18.70
2022-10-08T14:03:09.768Z,18.67
2022-10-08T14:05:42.797Z,18.66
2022-10-08T14:08:29.036Z,18.64
2022-10-08T14:10:58.446Z,18.63
2022-10-08T14:13:26.935Z,18.64
2022-10-08T14:15:55.705Z,18.65
2022-10-08T14:18:24.104Z,18.64
2022-10-08T14:20:52.361Z,18.60
2022-10-08T14:23:22.176Z,18.58
2022-10-08T14:25:51.751Z,18.58
2022-10-08T14:28:20.185Z,18.58
2022-10-08T14:30:49.117Z,18.58
2022-10-08T14:33:17.440Z,18.56
2022-10-08T14:35:46.218Z,18.54
2022-10-08T14:38:14.389Z,18.51
2022-10-08T14:40:42.705Z,18.46
2022-10-08T14:43:11.217Z,18.40
2022-10-08T14:45:39.478Z,18.37
2022-10-08T14:48:10.894Z,18.35
2022-10-08T14:50:39.095Z,18.31
2022-10-08T14:53:07.312Z,18.28
2022-10-08T14:55:54.484Z,18.25
2022-10-08T14:58:24.748Z,18.23
2022-10-08T15:00:57.193Z,18.21
2022-10-08T15:03:26.094Z,18.19
2022-10-08T15:05:59.009Z,18.17
2022-10-08T15:08:28.576Z,18.16
2022-10-08T15:10:56.982Z,18.12
2022-10-08T15:13:25.216Z,18.08
2022-10-08T15:15:53.526Z,18.02
2022-10-08T15:18:21.869Z,17.97
2022-10-08T15:20:58.635Z,17.93
2022-10-08T15:23:27.963Z,17.86
2022-10-08T15:26:06.318Z,17.82
2022-10-08T15:28:38.434Z,17.78
2022-10-08T15:31:19.030Z,17.74
2022-10-08T15:33:50.797Z,17.69
2022-10-08T15:36:21.371Z,17.64
2022-10-08T15:38:58.167Z,17.58
2022-10-08T15:41:29.416Z,17.51
2022-10-08T15:44:10.068Z,17.47
2022-10-08T15:46:38.706Z,17.41
2022-10-08T15:49:07.059Z,17.36
2022-10-08T15:51:35.645Z,17.32
2022-10-08T15:54:05.478Z,17.26
2022-10-08T15:56:34.865Z,17.20
2022-10-08T15:59:04.578Z,17.15
2022-10-08T16:01:33.063Z,17.10
2022-10-08T16:04:01.674Z,17.06
2022-10-08T16:06:35.364Z,17.01
2022-10-08T16:09:04.180Z,16.96
2022-10-08T16:11:34.691Z,16.93
2022-10-08T16:14:24.838Z,16.88
2022-10-08T16:16:54.772Z,16.83
2022-10-08T16:19:26.486Z,16.79
2022-10-08T16:21:59.003Z,16.73
2022-10-08T16:24:27.544Z,16.69
2022-10-08T16:26:56.014Z,16.63
2022-10-08T16:29:24.376Z,16.59
2022-10-08T16:31:52.904Z,16.54
2022-10-08T16:34:23.934Z,16.51
2022-10-08T16:37:10.489Z,16.50
2022-10-08T16:39:38.750Z,16.44
2022-10-08T16:42:07.098Z,16.40
2022-10-08T16:44:35.420Z,16.36
2022-10-08T16:47:03.744Z,16.32
2022-10-08T16:49:32.179Z,16.27
2022-10-08T16:52:08.272Z,16.23
2022-10-08T16:54:36.643Z,16.19
2022-10-08T16:57:04.937Z,16.16
2022-10-08T16:59:33.433Z,16.13
2022-10-08T17:02:02.494Z,16.09
2022-10-08T17:04:38.915Z,16.05
2022-10-08T17:07:07.786Z,16.00
2022-10-08T17:09:36.247Z,15.96
2022-10-08T17:12:06.960Z,15.92
2022-10-08T17:14:37.724Z,15.87
2022-10-08T17:17:06.123Z,15.82
2022-10-08T17:19:34.430Z,15.78
2022-10-08T17:22:02.846Z,15.73
2022-10-08T17:24:31.497Z,15.67
2022-10-08T17:26:59.728Z,15.63
2022-10-08T17:29:28.042Z,15.58
2022-10-08T17:31:56.364Z,15.53
2022-10-08T17:34:25.109Z,15.48
2022-10-08T17:36:53.452Z,15.43
2022-10-08T17:39:21.752Z,15.38
2022-10-08T17:41:50.169Z,15.33
2022-10-08T17:44:18.662Z,15.28
2022-10-08T17:46:48.174Z,15.23
2022-10-08T17:49:19.744Z,15.19
2022-10-08T17:51:50.826Z,15.13
2022-10-08T17:54:20.594Z,15.09
2022-10-08T17:56:49.758Z,15.03
2022-10-08T17:59:22.772Z,14.97
2022-10-08T18:01:51.672Z,14.90
2022-10-08T18:04:20.189Z,14.83
2022-10-08T18:06:49.230Z,14.78
2022-10-08T18:09:21.031Z,14.71
2022-10-08T18:11:53.276Z,14.65
2022-10-08T18:14:22.406Z,14.58
2022-10-08T18:16:51.054Z,14.52
2022-10-08T18:19:19.949Z,14.47
2022-10-08T18:21:48.648Z,14.40
2022-10-08T18:24:18.084Z,14.33
2022-10-08T18:26:46.901Z,14.27
2022-10-08T18:29:15.447Z,14.20
2022-10-08T18:31:46.639Z,14.13
2022-10-08T18:34:18.372Z,14.09
2022-10-08T18:36:47.045Z,14.04
2022-10-08T18:39:21.540Z,14.01
2022-10-08T18:41:54.540Z,13.97
2022-10-08T18:44:25.934Z,13.94
2022-10-08T18:46:54.447Z,13.92
2022-10-08T18:49:30.624Z,13.90
2022-10-08T18:51:59.820Z,13.89
2022-10-08T18:54:28.407Z,13.89
2022-10-08T18:56:58.907Z,13.89
2022-10-08T18:59:27.606Z,13.87
2022-10-08T19:01:59.565Z,13.84
2022-10-08T19:04:28.270Z,13.81
2022-10-08T19:06:56.988Z,13.78
2022-10-08T19:09:25.284Z,13.74
2022-10-08T19:11:54.580Z,13.70
2022-10-08T19:14:23.927Z,13.66
2022-10-08T19:16:52.469Z,13.63
2022-10-08T19:19:27.316Z,13.58
2022-10-08T19:21:55.847Z,13.54
2022-10-08T19:26:27.818Z,13.50
2022-10-08T19:29:26.364Z,13.42
2022-10-08T19:31:55.719Z,13.35
2022-10-08T19:34:26.871Z,13.30
2022-10-08T19:36:56.372Z,13.24
2022-10-08T19:39:28.991Z,13.19
2022-10-08T19:41:58.003Z,13.14
2022-10-08T19:44:26.311Z,13.09
2022-10-08T19:46:54.637Z,13.04
2022-10-08T19:49:23.791Z,13.00
2022-10-08T19:51:53.681Z,12.95
2022-10-08T19:54:22.256Z,12.90
2022-10-08T19:56:50.525Z,12.87
2022-10-08T19:59:18.898Z,12.82
2022-10-08T20:01:47.681Z,12.80
2022-10-08T20:04:16.870Z,12.76
2022-10-08T20:06:45.245Z,12.76
2022-10-08T20:09:14.449Z,12.76
2022-10-08T20:11:45.742Z,12.78
2022-10-08T20:14:15.646Z,12.79
2022-10-08T20:16:44.368Z,12.79
2022-10-08T20:19:20.759Z,12.78
2022-10-08T20:21:51.163Z,12.76
2022-10-08T20:24:20.061Z,12.74
2022-10-08T20:26:49.904Z,12.73
2022-10-08T20:29:24.395Z,12.71
2022-10-08T20:31:56.465Z,12.70
2022-10-08T20:34:28.747Z,12.68
2022-10-08T20:37:01.226Z,12.67
2022-10-08T20:39:29.973Z,12.65
2022-10-08T20:41:59.566Z,12.62
2022-10-08T20:44:27.788Z,12.58
2022-10-08T20:46:56.217Z,12.52
2022-10-08T20:49:24.829Z,12.46
2022-10-08T20:51:53.071Z,12.41
2022-10-08T20:54:21.515Z,12.35
2022-10-08T20:56:49.809Z,12.28
2022-10-08T20:59:19.307Z,12.23
2022-10-08T21:01:50.240Z,12.17
2022-10-08T21:04:20.623Z,12.12
2022-10-08T21:06:50.492Z,12.08
2022-10-08T21:09:22.119Z,12.06
2022-10-08T21:11:50.414Z,12.03
2022-10-08T21:14:22.458Z,12.01
2022-10-08T21:16:50.877Z,12.00
2022-10-08T21:19:22.168Z,11.99
2022-10-08T21:21:50.884Z,11.97
2022-10-08T21:24:19.290Z,11.96
2022-10-08T21:26:47.762Z,11.96
2022-10-08T21:29:16.099Z,11.94
2022-10-08T21:31:44.414Z,11.94
2022-10-08T21:34:16.557Z,11.95
2022-10-08T21:36:44.833Z,11.94
2022-10-08T21:39:17.491Z,11.93
2022-10-08T21:41:46.910Z,11.91
2022-10-08T21:44:15.282Z,11.89
2022-10-08T21:46:45.044Z,11.87
2022-10-08T21:49:20.529Z,11.85
2022-10-08T21:51:48.905Z,11.82
2022-10-08T21:54:17.967Z,11.81
2022-10-08T21:56:46.234Z,11.79
2022-10-08T21:59:16.278Z,11.77
2022-10-08T22:10:58.643Z,11.64
2022-10-08T22:13:27.141Z,11.58
2022-10-08T22:15:59.542Z,11.55
2022-10-08T22:18:32.571Z,11.53
2022-10-08T22:21:05.131Z,11.51
2022-10-08T22:23:34.432Z,11.47
2022-10-08T22:26:18.290Z,11.44
2022-10-08T22:28:47.507Z,11.39
2022-10-08T22:31:18.813Z,11.34
2022-10-08T22:33:47.664Z,11.28
2022-10-08T22:36:23.734Z,11.23
2022-10-08T22:38:53.287Z,11.19
2022-10-08T22:41:31.818Z,11.13
2022-10-08T22:44:00.850Z,11.08
2022-10-08T22:46:35.260Z,11.03
2022-10-08T22:49:12.400Z,10.98
2022-10-08T22:51:41.245Z,10.93
2022-10-08T22:54:10.623Z,10.88
2022-10-08T22:56:38.975Z,10.84
2022-10-08T22:59:07.273Z,10.79
2022-10-08T23:01:35.776Z,10.73
2022-10-08T23:04:04.205Z,10.70
2022-10-08T23:06:34.663Z,10.68
2022-10-08T23:09:12.675Z,10.65
2022-10-08T23:11:40.952Z,10.62
2022-10-08T23:14:09.918Z,10.59
2022-10-08T23:16:38.194Z,10.57
2022-10-08T23:19:09.086Z,10.53
2022-10-08T23:21:38.680Z,10.50
2022-10-08T23:24:07.030Z,10.46
2022-10-08T23:26:36.380Z,10.42
2022-10-08T23:29:05.286Z,10.39
2022-10-08T23:31:36.923Z,10.36
2022-10-08T23:34:07.766Z,10.35
2022-10-08T23:36:41.544Z,10.32
2022-10-08T23:39:14.795Z,10.28
2022-10-08T23:41:43.624Z,10.24
2022-10-08T23:44:13.562Z,10.20
2022-10-08T23:46:41.770Z,10.15
2022-10-08T23:49:09.994Z,10.10
2022-10-08T23:51:39.014Z,10.07
2022-10-08T23:54:07.481Z,10.04
2022-10-08T23:56:35.684Z,10.00
2022-10-08T23:59:04.307Z,9.99
